createdAt,value
2018-05-04T00:00:05.041Z,1016.55
2018-05-04T00:01:05.054Z,1016.60
2018-05-04T00:02:05.070Z,1016.58
2018-05-04T00:03:05.090Z,1016.58
2018-05-04T00:04:05.129Z,1016.61
2018-05-04T00:05:05.122Z,1016.64
2018-05-04T00:06:05.136Z,1016.63
2018-05-04T00:07:05.149Z,1016.60
2018-05-04T00:08:05.164Z,1016.65
2018-05-04T00:09:05.179Z,1016.62
2018-05-04T00:10:05.195Z,1016.66
2018-05-04T00:11:05.211Z,1016.69
2018-05-04T00:12:05.227Z,1016.68
2018-05-04T00:13:05.449Z,1016.68
2018-05-04T00:14:05.311Z,1016.70
2018-05-04T00:15:05.285Z,1016.71
2018-05-04T00:16:05.289Z,1016.70
2018-05-04T00:17:05.306Z,1016.76
2018-05-04T00:18:05.319Z,1016.75
2018-05-04T00:19:05.342Z,1016.76
2018-05-04T00:20:05.354Z,1016.76
2018-05-04T00:21:05.366Z,1016.74
2018-05-04T00:22:05.384Z,1016.73
2018-05-04T00:23:05.401Z,1016.75
2018-05-04T00:24:05.417Z,1016.70
2018-05-04T00:25:05.429Z,1016.74
2018-05-04T00:26:05.443Z,1016.77
2018-05-04T00:27:05.461Z,1016.76
2018-05-04T00:28:05.479Z,1016.73
2018-05-04T00:29:05.490Z,1016.72
2018-05-04T00:30:05.507Z,1016.74
2018-05-04T00:31:05.521Z,1016.73
2018-05-04T00:32:05.537Z,1016.69
2018-05-04T00:33:05.556Z,1016.70
2018-05-04T00:34:05.567Z,1016.68
2018-05-04T00:35:05.583Z,1016.68
2018-05-04T00:36:05.599Z,1016.69
2018-05-04T00:37:05.615Z,1016.70
2018-05-04T00:38:05.637Z,1016.71
2018-05-04T00:39:05.650Z,1016.77
2018-05-04T00:40:05.663Z,1016.73
2018-05-04T00:41:05.676Z,1016.73
2018-05-04T00:42:05.695Z,1016.77
2018-05-04T00:43:05.712Z,1016.74
2018-05-04T00:44:05.731Z,1016.74
2018-05-04T00:45:05.820Z,1016.71
2018-05-04T00:46:05.756Z,1016.74
2018-05-04T00:47:05.955Z,1016.71
2018-05-04T00:48:05.790Z,1016.69
2018-05-04T00:49:05.800Z,1016.72
2018-05-04T00:50:05.817Z,1016.71
2018-05-04T00:51:05.843Z,1016.72
2018-05-04T00:52:05.852Z,1016.74
2018-05-04T00:53:05.864Z,1016.75
2018-05-04T00:54:05.879Z,1016.74
2018-05-04T00:55:05.895Z,1016.78
2018-05-04T00:56:05.910Z,1016.75
2018-05-04T00:57:05.927Z,1016.77
2018-05-04T00:58:05.940Z,1016.81
2018-05-04T00:59:05.957Z,1016.81
2018-05-04T01:00:05.973Z,1016.86
2018-05-04T01:01:06.000Z,1016.90
2018-05-04T01:02:06.004Z,1016.90
2018-05-04T01:03:06.019Z,1016.93
2018-05-04T01:04:06.041Z,1016.97
2018-05-04T01:05:06.048Z,1016.97
2018-05-04T01:06:06.080Z,1016.93
2018-05-04T01:07:06.078Z,1017.00
2018-05-04T01:08:06.102Z,1016.95
2018-05-04T01:09:06.115Z,1016.98
2018-05-04T01:10:06.124Z,1017.00
2018-05-04T01:11:06.147Z,1016.96
2018-05-04T01:12:06.162Z,1016.97
2018-05-04T01:13:06.174Z,1016.97
2018-05-04T01:14:06.190Z,1016.99
2018-05-04T01:15:06.201Z,1016.99
2018-05-04T01:16:06.217Z,1017.01
2018-05-04T01:17:06.235Z,1016.98
2018-05-04T01:18:06.269Z,1016.99
2018-05-04T01:19:06.266Z,1016.96
2018-05-04T01:20:06.407Z,1016.99
2018-05-04T01:21:06.346Z,1016.98
2018-05-04T01:22:06.318Z,1017.03
2018-05-04T01:23:06.330Z,1017.02
2018-05-04T01:24:06.341Z,1017.02
2018-05-04T01:25:06.355Z,1017.02
2018-05-04T01:26:06.374Z,1017.03
2018-05-04T01:27:06.386Z,1017.08
2018-05-04T01:28:06.402Z,1017.08
2018-05-04T01:29:06.419Z,1017.06
2018-05-04T01:30:06.431Z,1017.06
2018-05-04T01:31:06.447Z,1017.04
2018-05-04T01:32:06.464Z,1017.03
2018-05-04T01:33:06.473Z,1017.08
2018-05-04T01:34:06.493Z,1017.05
2018-05-04T01:35:06.510Z,1017.10
2018-05-04T01:36:06.523Z,1017.10
2018-05-04T01:37:06.539Z,1017.16
2018-05-04T01:38:06.555Z,1017.14
2018-05-04T01:39:06.669Z,1017.20
2018-05-04T01:40:06.738Z,1017.20
2018-05-04T01:41:06.712Z,1017.21
2018-05-04T01:42:06.722Z,1017.25
2018-05-04T01:43:06.781Z,1017.27
2018-05-04T01:44:06.646Z,1017.28
2018-05-04T01:45:06.673Z,1017.29
2018-05-04T01:46:06.676Z,1017.30
2018-05-04T01:47:06.692Z,1017.32
2018-05-04T01:48:06.705Z,1017.36
2018-05-04T01:49:06.797Z,1017.32
2018-05-04T01:50:06.745Z,1017.39
2018-05-04T01:51:06.758Z,1017.43
2018-05-04T01:52:06.789Z,1017.39
2018-05-04T01:53:06.806Z,1017.42
2018-05-04T01:54:06.796Z,1017.44
2018-05-04T01:55:06.810Z,1017.45
2018-05-04T01:56:06.826Z,1017.44
2018-05-04T01:57:06.848Z,1017.41
2018-05-04T01:58:06.855Z,1017.42
2018-05-04T01:59:06.870Z,1017.37
2018-05-04T02:00:06.894Z,1017.35
2018-05-04T02:01:06.902Z,1017.36
2018-05-04T02:02:06.916Z,1017.36
2018-05-04T02:03:06.931Z,1017.38
2018-05-04T02:04:06.951Z,1017.40
2018-05-04T02:05:06.967Z,1017.43
2018-05-04T02:06:06.978Z,1017.40
2018-05-04T02:07:06.995Z,1017.46
2018-05-04T02:08:07.009Z,1017.44
2018-05-04T02:09:07.025Z,1017.42
2018-05-04T02:10:07.038Z,1017.44
2018-05-04T02:11:07.053Z,1017.45
2018-05-04T02:12:07.072Z,1017.44
2018-05-04T02:13:07.087Z,1017.41
2018-05-04T02:14:07.096Z,1017.42
2018-05-04T02:15:07.114Z,1017.43
2018-05-04T02:16:07.152Z,1017.42
2018-05-04T02:17:07.153Z,1017.44
2018-05-04T02:18:07.158Z,1017.40
2018-05-04T02:19:07.182Z,1017.38
2018-05-04T02:20:07.192Z,1017.41
2018-05-04T02:21:07.208Z,1017.38
2018-05-04T02:22:07.228Z,1017.39
2018-05-04T02:23:07.237Z,1017.38
2018-05-04T02:24:07.251Z,1017.42
2018-05-04T02:25:07.290Z,1017.44
2018-05-04T02:26:07.277Z,1017.44
2018-05-04T02:27:07.295Z,1017.48
2018-05-04T02:28:07.308Z,1017.47
2018-05-04T02:29:07.322Z,1017.49
2018-05-04T02:30:07.351Z,1017.49
2018-05-04T02:31:07.355Z,1017.48
2018-05-04T02:32:07.370Z,1017.47
2018-05-04T02:33:07.384Z,1017.46
2018-05-04T02:34:07.403Z,1017.43
2018-05-04T02:35:07.425Z,1017.41
2018-05-04T02:36:07.430Z,1017.42
2018-05-04T02:37:07.443Z,1017.42
2018-05-04T02:38:07.460Z,1017.43
2018-05-04T02:39:07.475Z,1017.40
2018-05-04T02:40:07.495Z,1017.41
2018-05-04T02:41:07.506Z,1017.45
2018-05-04T02:42:07.519Z,1017.41
2018-05-04T02:43:07.535Z,1017.43
2018-05-04T02:44:07.555Z,1017.42
2018-05-04T02:45:07.565Z,1017.48
2018-05-04T02:46:07.580Z,1017.45
2018-05-04T02:47:07.591Z,1017.47
2018-05-04T02:48:07.607Z,1017.47
2018-05-04T02:49:07.646Z,1017.46
2018-05-04T02:50:07.639Z,1017.43
2018-05-04T02:51:07.658Z,1017.40
2018-05-04T02:52:07.668Z,1017.40
2018-05-04T02:53:07.684Z,1017.39
2018-05-04T02:54:07.705Z,1017.38
2018-05-04T02:55:07.714Z,1017.37
2018-05-04T02:56:07.726Z,1017.35
2018-05-04T02:57:07.754Z,1017.36
2018-05-04T02:58:07.765Z,1017.30
2018-05-04T02:59:07.772Z,1017.30
2018-05-04T03:00:07.796Z,1017.31
2018-05-04T03:01:07.803Z,1017.27
2018-05-04T03:02:07.816Z,1017.23
2018-05-04T03:03:07.847Z,1017.23
2018-05-04T03:04:07.848Z,1017.23
2018-05-04T03:05:07.862Z,1017.21
2018-05-04T03:06:07.876Z,1017.19
2018-05-04T03:07:07.897Z,1017.18
2018-05-04T03:08:07.907Z,1017.19
2018-05-04T03:09:07.929Z,1017.21
2018-05-04T03:10:07.939Z,1017.17
2018-05-04T03:11:07.956Z,1017.14
2018-05-04T03:12:07.966Z,1017.14
2018-05-04T03:13:07.994Z,1017.10
2018-05-04T03:14:07.999Z,1017.12
2018-05-04T03:15:08.018Z,1017.11
2018-05-04T03:16:08.026Z,1017.10
2018-05-04T03:17:08.040Z,1017.08
2018-05-04T03:18:08.063Z,1017.05
2018-05-04T03:19:08.071Z,1017.04
2018-05-04T03:20:08.086Z,1017.02
2018-05-04T03:21:08.099Z,1017.04
2018-05-04T03:22:08.121Z,1017.01
2018-05-04T03:23:08.131Z,1017.03
2018-05-04T03:24:08.163Z,1017.02
2018-05-04T03:25:08.157Z,1017.02
2018-05-04T03:26:08.175Z,1017.04
2018-05-04T03:27:08.189Z,1016.98
2018-05-04T03:28:08.208Z,1016.99
2018-05-04T03:29:08.227Z,1017.01
2018-05-04T03:30:08.251Z,1016.96
2018-05-04T03:31:08.254Z,1016.99
2018-05-04T03:32:08.264Z,1016.96
2018-05-04T03:33:08.317Z,1016.95
2018-05-04T03:34:08.293Z,1016.97
2018-05-04T03:35:08.309Z,1017.01
2018-05-04T03:36:08.325Z,1017.00
2018-05-04T03:37:08.337Z,1017.02
2018-05-04T03:38:08.354Z,1017.02
2018-05-04T03:39:08.368Z,1016.97
2018-05-04T03:40:08.383Z,1017.03
2018-05-04T03:41:08.401Z,1017.01
2018-05-04T03:42:08.412Z,1016.96
2018-05-04T03:43:08.424Z,1016.97
2018-05-04T03:44:08.442Z,1016.96
2018-05-04T03:45:08.455Z,1016.97
2018-05-04T03:46:08.481Z,1016.99
2018-05-04T03:47:08.494Z,1017.00
2018-05-04T03:48:08.511Z,1017.02
2018-05-04T03:49:08.551Z,1016.99
2018-05-04T03:50:08.530Z,1017.06
2018-05-04T03:51:08.547Z,1017.04
2018-05-04T03:52:08.612Z,1017.02
2018-05-04T03:53:08.574Z,1017.02
2018-05-04T03:54:08.588Z,1017.05
2018-05-04T03:55:08.610Z,1017.04
2018-05-04T03:56:08.638Z,1017.03
2018-05-04T03:57:08.633Z,1017.06
2018-05-04T03:58:08.651Z,1017.02
2018-05-04T03:59:08.662Z,1017.04
2018-05-04T04:00:08.680Z,1017.02
2018-05-04T04:01:08.691Z,1017.05
2018-05-04T04:03:08.887Z,1017.09
2018-05-04T04:04:08.736Z,1017.10
2018-05-04T04:05:08.744Z,1017.08
2018-05-04T04:06:08.760Z,1017.05
2018-05-04T04:07:08.775Z,1017.07
2018-05-04T04:08:08.789Z,1017.08
2018-05-04T04:09:08.802Z,1017.08
2018-05-04T04:10:08.823Z,1017.05
2018-05-04T04:11:08.837Z,1017.05
2018-05-04T04:12:08.846Z,1017.05
2018-05-04T04:13:08.860Z,1017.06
2018-05-04T04:14:08.875Z,1017.07
2018-05-04T04:15:08.896Z,1017.11
2018-05-04T04:16:08.930Z,1017.12
2018-05-04T04:17:08.920Z,1017.14
2018-05-04T04:18:08.935Z,1017.17
2018-05-04T04:19:08.949Z,1017.18
2018-05-04T04:20:08.966Z,1017.21
2018-05-04T04:21:08.982Z,1017.27
2018-05-04T04:22:09.362Z,1017.25
2018-05-04T04:23:09.029Z,1017.28
2018-05-04T04:25:09.053Z,1017.35
2018-05-04T04:26:09.057Z,1017.33
2018-05-04T04:27:09.068Z,1017.38
2018-05-04T04:28:09.107Z,1017.37
2018-05-04T04:29:09.096Z,1017.41
2018-05-04T04:30:09.115Z,1017.41
2018-05-04T04:31:09.140Z,1017.40
2018-05-04T04:32:09.140Z,1017.42
2018-05-04T04:33:09.154Z,1017.43
2018-05-04T04:34:09.277Z,1017.44
2018-05-04T04:35:09.185Z,1017.44
2018-05-04T04:36:09.256Z,1017.44
2018-05-04T04:37:09.213Z,1017.46
2018-05-04T04:38:10.540Z,1017.51
2018-05-04T04:39:09.361Z,1017.47
2018-05-04T04:40:09.288Z,1017.52
2018-05-04T04:41:09.329Z,1017.55
2018-05-04T04:42:09.325Z,1017.56
2018-05-04T04:43:09.300Z,1017.57
2018-05-04T04:44:09.331Z,1017.56
2018-05-04T04:45:09.338Z,1017.57
2018-05-04T04:46:09.346Z,1017.63
2018-05-04T04:47:09.366Z,1017.57
2018-05-04T04:48:09.468Z,1017.61
2018-05-04T04:49:09.547Z,1017.61
2018-05-04T04:50:09.408Z,1017.64
2018-05-04T04:51:09.419Z,1017.63
2018-05-04T04:53:09.457Z,1017.66
2018-05-04T04:54:09.472Z,1017.66
2018-05-04T04:55:09.497Z,1017.68
2018-05-04T04:56:10.317Z,1017.74
2018-05-04T04:57:09.517Z,1017.71
2018-05-04T04:58:09.524Z,1017.72
2018-05-04T04:59:09.537Z,1017.74
2018-05-04T05:00:09.558Z,1017.72
2018-05-04T05:01:09.633Z,1017.73
2018-05-04T05:02:10.760Z,1017.77
2018-05-04T05:03:10.264Z,1017.78
2018-05-04T05:04:10.236Z,1017.78
2018-05-04T05:05:09.788Z,1017.81
2018-05-04T05:06:09.787Z,1017.83
2018-05-04T05:07:09.681Z,1017.85
2018-05-04T05:08:09.772Z,1017.84
2018-05-04T05:09:09.753Z,1017.89
2018-05-04T05:10:09.704Z,1017.89
2018-05-04T05:11:09.939Z,1017.91
2018-05-04T05:12:10.817Z,1017.96
2018-05-04T05:13:09.966Z,1017.97
2018-05-04T05:14:09.881Z,1018.01
2018-05-04T05:15:09.781Z,1018.01
2018-05-04T05:16:09.792Z,1018.06
2018-05-04T05:17:09.812Z,1018.05
2018-05-04T05:18:10.029Z,1018.07
2018-05-04T05:19:10.332Z,1018.09
2018-05-04T05:20:09.902Z,1018.09
2018-05-04T05:21:09.870Z,1018.06
2018-05-04T05:22:09.876Z,1018.06
2018-05-04T05:23:09.900Z,1018.09
2018-05-04T05:24:10.438Z,1018.07
2018-05-04T05:25:10.017Z,1018.07
2018-05-04T05:26:10.409Z,1018.04
2018-05-04T05:27:10.480Z,1018.07
2018-05-04T05:28:10.687Z,1018.01
2018-05-04T05:29:10.019Z,1018.00
2018-05-04T05:30:10.290Z,1018.03
2018-05-04T05:31:10.622Z,1018.05
2018-05-04T05:32:10.259Z,1018.08
2018-05-04T05:33:10.039Z,1018.06
2018-05-04T05:34:10.060Z,1018.08
2018-05-04T05:35:10.069Z,1018.15
2018-05-04T05:36:10.084Z,1018.14
2018-05-04T05:37:10.146Z,1018.22
2018-05-04T05:38:10.108Z,1018.22
2018-05-04T05:39:10.149Z,1018.22
2018-05-04T05:40:10.180Z,1018.20
2018-05-04T05:41:10.412Z,1018.23
2018-05-04T05:43:10.744Z,1018.19
2018-05-04T05:44:10.227Z,1018.22
2018-05-04T05:45:10.380Z,1018.19
2018-05-04T05:46:10.233Z,1018.21
2018-05-04T05:47:10.244Z,1018.23
2018-05-04T05:48:10.690Z,1018.25
2018-05-04T05:49:10.322Z,1018.28
2018-05-04T05:50:10.309Z,1018.30
2018-05-04T05:51:10.506Z,1018.31
2018-05-04T05:52:10.539Z,1018.29
2018-05-04T05:53:10.352Z,1018.28
2018-05-04T05:54:10.501Z,1018.28
2018-05-04T05:56:10.580Z,1018.26
2018-05-04T05:57:10.471Z,1018.26
2018-05-04T05:58:10.543Z,1018.28
2018-05-04T05:59:10.444Z,1018.28
2018-05-04T06:00:10.483Z,1018.27
2018-05-04T06:01:11.174Z,1018.30
2018-05-04T06:03:11.844Z,1018.33
2018-05-04T06:04:10.739Z,1018.29
2018-05-04T06:05:10.675Z,1018.33
2018-05-04T06:06:12.091Z,1018.33
2018-05-04T06:07:11.495Z,1018.31
2018-05-04T06:08:10.896Z,1018.30
2018-05-04T06:09:10.821Z,1018.24
2018-05-04T06:10:11.683Z,1018.26
2018-05-04T06:12:11.254Z,1018.25
2018-05-04T06:13:11.380Z,1018.26
2018-05-04T06:15:11.495Z,1018.31
2018-05-04T06:16:10.921Z,1018.33
2018-05-04T06:17:10.698Z,1018.32
2018-05-04T06:18:10.711Z,1018.35
2018-05-04T06:19:10.734Z,1018.34
2018-05-04T06:20:10.741Z,1018.34
2018-05-04T06:21:10.756Z,1018.38
2018-05-04T06:22:10.774Z,1018.34
2018-05-04T06:24:11.984Z,1018.37
2018-05-04T06:25:10.835Z,1018.35
2018-05-04T06:26:10.833Z,1018.33
2018-05-04T06:27:10.871Z,1018.34
2018-05-04T06:29:11.719Z,1018.36
2018-05-04T06:31:11.053Z,1018.33
2018-05-04T06:32:10.957Z,1018.33
2018-05-04T06:33:12.028Z,1018.32
2018-05-04T06:34:11.022Z,1018.29
2018-05-04T06:35:11.038Z,1018.28
2018-05-04T06:36:11.252Z,1018.32
2018-05-04T06:37:11.681Z,1018.27
2018-05-04T06:38:11.507Z,1018.29
2018-05-04T06:39:11.132Z,1018.30
2018-05-04T06:40:12.784Z,1018.29
2018-05-04T06:41:12.235Z,1018.29
2018-05-04T06:42:11.166Z,1018.28
2018-05-04T06:43:11.203Z,1018.28
2018-05-04T06:45:11.209Z,1018.29
2018-05-04T06:46:11.311Z,1018.30
2018-05-04T06:47:11.154Z,1018.29
2018-05-04T06:48:11.201Z,1018.30
2018-05-04T06:49:11.315Z,1018.27
2018-05-04T06:50:11.298Z,1018.28
2018-05-04T06:51:11.383Z,1018.23
2018-05-04T06:52:11.337Z,1018.24
2018-05-04T06:53:11.329Z,1018.23
2018-05-04T06:54:11.258Z,1018.25
2018-05-04T06:55:11.909Z,1018.28
2018-05-04T06:56:11.340Z,1018.33
2018-05-04T06:57:11.413Z,1018.32
2018-05-04T06:58:11.409Z,1018.30
2018-05-04T06:59:11.341Z,1018.30
2018-05-04T07:00:12.019Z,1018.35
2018-05-04T07:01:11.665Z,1018.33
2018-05-04T07:02:12.491Z,1018.35
2018-05-04T07:03:12.033Z,1018.35
2018-05-04T07:05:11.806Z,1018.34
2018-05-04T07:06:11.753Z,1018.39
2018-05-04T07:07:11.769Z,1018.36
2018-05-04T07:08:12.026Z,1018.37
2018-05-04T07:09:11.646Z,1018.34
2018-05-04T07:10:11.563Z,1018.40
2018-05-04T07:11:12.446Z,1018.40
2018-05-04T07:12:11.623Z,1018.42
2018-05-04T07:13:11.810Z,1018.43
2018-05-04T07:15:13.223Z,1018.47
2018-05-04T07:16:11.709Z,1018.49
2018-05-04T07:17:11.657Z,1018.47
2018-05-04T07:18:12.251Z,1018.48
2018-05-04T07:19:12.010Z,1018.46
2018-05-04T07:20:11.732Z,1018.47
2018-05-04T07:21:11.688Z,1018.44
2018-05-04T07:22:11.852Z,1018.42
2018-05-04T07:23:11.852Z,1018.35
2018-05-04T07:24:11.734Z,1018.33
2018-05-04T07:25:11.835Z,1018.33
2018-05-04T07:26:12.508Z,1018.30
2018-05-04T07:27:12.038Z,1018.30
2018-05-04T07:28:12.922Z,1018.33
2018-05-04T07:29:11.870Z,1018.29
2018-05-04T07:31:11.982Z,1018.38
2018-05-04T07:32:11.908Z,1018.37
2018-05-04T07:33:11.895Z,1018.37
2018-05-04T07:34:11.907Z,1018.37
2018-05-04T07:35:11.917Z,1018.39
2018-05-04T07:36:11.959Z,1018.40
2018-05-04T07:37:11.931Z,1018.46
2018-05-04T07:38:12.149Z,1018.43
2018-05-04T07:39:12.107Z,1018.43
2018-05-04T07:40:12.421Z,1018.49
2018-05-04T07:41:12.286Z,1018.51
2018-05-04T07:42:12.144Z,1018.52
2018-05-04T07:43:12.276Z,1018.55
2018-05-04T07:44:12.134Z,1018.49
2018-05-04T07:45:12.660Z,1018.45
2018-05-04T07:47:12.089Z,1018.45
2018-05-04T07:48:12.195Z,1018.43
2018-05-04T07:49:12.124Z,1018.46
2018-05-04T07:50:12.127Z,1018.46
2018-05-04T07:51:12.145Z,1018.45
2018-05-04T07:52:12.169Z,1018.47
2018-05-04T07:53:12.180Z,1018.47
2018-05-04T07:54:12.196Z,1018.47
2018-05-04T07:55:12.290Z,1018.45
2018-05-04T07:56:12.272Z,1018.45
2018-05-04T07:57:12.242Z,1018.47
2018-05-04T07:58:13.086Z,1018.43
2018-05-04T07:59:12.272Z,1018.42
2018-05-04T08:00:13.569Z,1018.40
2018-05-04T08:01:14.067Z,1018.41
2018-05-04T08:02:13.299Z,1018.42
2018-05-04T08:03:13.870Z,1018.44
2018-05-04T08:04:12.440Z,1018.47
2018-05-04T08:05:12.563Z,1018.48
2018-05-04T08:06:12.394Z,1018.47
2018-05-04T08:07:12.398Z,1018.49
2018-05-04T08:08:12.436Z,1018.48
2018-05-04T08:09:12.440Z,1018.47
2018-05-04T08:10:12.711Z,1018.47
2018-05-04T08:11:12.574Z,1018.45
2018-05-04T08:12:12.487Z,1018.45
2018-05-04T08:13:12.514Z,1018.42
2018-05-04T08:14:12.559Z,1018.47
2018-05-04T08:15:12.535Z,1018.48
2018-05-04T08:16:12.542Z,1018.47
2018-05-04T08:17:12.573Z,1018.46
2018-05-04T08:18:12.576Z,1018.45
2018-05-04T08:19:12.591Z,1018.43
2018-05-04T08:20:12.628Z,1018.44
2018-05-04T08:21:12.890Z,1018.42
2018-05-04T08:22:13.115Z,1018.47
2018-05-04T08:23:12.656Z,1018.45
2018-05-04T08:24:12.769Z,1018.47
2018-05-04T08:25:12.723Z,1018.45
2018-05-04T08:26:12.711Z,1018.47
2018-05-04T08:27:12.727Z,1018.51
2018-05-04T08:28:12.789Z,1018.47
2018-05-04T08:29:12.766Z,1018.49
2018-05-04T08:30:12.811Z,1018.52
2018-05-04T08:31:13.571Z,1018.51
2018-05-04T08:32:13.482Z,1018.52
2018-05-04T08:33:12.823Z,1018.50
2018-05-04T08:34:12.895Z,1018.53
2018-05-04T08:35:13.209Z,1018.51
2018-05-04T08:36:12.864Z,1018.54
2018-05-04T08:37:12.883Z,1018.54
2018-05-04T08:38:12.896Z,1018.52
2018-05-04T08:39:12.923Z,1018.51
2018-05-04T08:40:12.935Z,1018.53
2018-05-04T08:41:12.952Z,1018.54
2018-05-04T08:42:12.962Z,1018.50
2018-05-04T08:43:12.988Z,1018.53
2018-05-04T08:44:13.611Z,1018.56
2018-05-04T08:45:13.012Z,1018.53
2018-05-04T08:46:14.345Z,1018.53
2018-05-04T08:47:13.044Z,1018.53
2018-05-04T08:48:13.076Z,1018.49
2018-05-04T08:49:13.090Z,1018.46
2018-05-04T08:50:13.091Z,1018.42
2018-05-04T08:51:13.541Z,1018.46
2018-05-04T08:52:13.221Z,1018.44
2018-05-04T08:53:13.189Z,1018.43
2018-05-04T08:54:13.278Z,1018.40
2018-05-04T08:55:13.176Z,1018.40
2018-05-04T08:56:13.192Z,1018.39
2018-05-04T08:57:13.310Z,1018.35
2018-05-04T08:58:13.222Z,1018.37
2018-05-04T08:59:13.249Z,1018.32
2018-05-04T09:00:13.253Z,1018.34
2018-05-04T09:02:13.294Z,1018.39
2018-05-04T09:03:13.619Z,1018.37
2018-05-04T09:04:13.326Z,1018.38
2018-05-04T09:05:13.458Z,1018.39
2018-05-04T09:06:13.355Z,1018.37
2018-05-04T09:07:13.368Z,1018.35
2018-05-04T09:08:13.387Z,1018.34
2018-05-04T09:09:13.404Z,1018.42
2018-05-04T09:10:13.419Z,1018.38
2018-05-04T09:11:13.434Z,1018.43
2018-05-04T09:12:13.452Z,1018.42
2018-05-04T09:13:13.474Z,1018.42
2018-05-04T09:14:13.489Z,1018.38
2018-05-04T09:15:13.506Z,1018.37
2018-05-04T09:16:13.714Z,1018.39
2018-05-04T09:17:13.535Z,1018.41
2018-05-04T09:18:13.558Z,1018.38
2018-05-04T09:19:14.212Z,1018.34
2018-05-04T09:20:13.586Z,1018.36
2018-05-04T09:21:13.611Z,1018.34
2018-05-04T09:22:13.617Z,1018.39
2018-05-04T09:23:13.635Z,1018.35
2018-05-04T09:24:13.791Z,1018.37
2018-05-04T09:25:13.744Z,1018.35
2018-05-04T09:26:13.685Z,1018.36
2018-05-04T09:27:13.703Z,1018.37
2018-05-04T09:28:13.721Z,1018.36
2018-05-04T09:29:13.742Z,1018.35
2018-05-04T09:30:13.971Z,1018.39
2018-05-04T09:31:13.768Z,1018.37
2018-05-04T09:32:14.457Z,1018.33
2018-05-04T09:33:13.800Z,1018.34
2018-05-04T09:34:13.831Z,1018.37
2018-05-04T09:35:13.835Z,1018.37
2018-05-04T09:36:13.993Z,1018.36
2018-05-04T09:37:13.936Z,1018.36
2018-05-04T09:38:14.511Z,1018.37
2018-05-04T09:39:13.903Z,1018.37
2018-05-04T09:40:13.932Z,1018.36
2018-05-04T09:41:13.934Z,1018.40
2018-05-04T09:42:14.000Z,1018.38
2018-05-04T09:43:14.218Z,1018.37
2018-05-04T09:44:14.058Z,1018.38
2018-05-04T09:45:14.000Z,1018.33
2018-05-04T09:46:14.017Z,1018.32
2018-05-04T09:47:14.034Z,1018.30
2018-05-04T09:48:14.069Z,1018.37
2018-05-04T09:49:14.068Z,1018.37
2018-05-04T09:50:14.088Z,1018.32
2018-05-04T09:51:14.098Z,1018.33
2018-05-04T09:52:14.120Z,1018.30
2018-05-04T09:53:14.139Z,1018.29
2018-05-04T09:54:14.153Z,1018.28
2018-05-04T09:55:14.175Z,1018.31
2018-05-04T09:56:14.275Z,1018.22
2018-05-04T09:57:14.202Z,1018.29
2018-05-04T09:58:14.219Z,1018.25
2018-05-04T09:59:14.243Z,1018.26
2018-05-04T10:00:14.253Z,1018.23
2018-05-04T10:01:14.270Z,1018.22
2018-05-04T10:03:14.916Z,1018.17
2018-05-04T10:04:15.038Z,1018.19
2018-05-04T10:05:15.629Z,1018.17
2018-05-04T10:06:15.015Z,1018.22
2018-05-04T10:07:14.728Z,1018.21
2018-05-04T10:08:14.666Z,1018.20
2018-05-04T10:09:16.145Z,1018.22
2018-05-04T10:10:14.531Z,1018.24
2018-05-04T10:11:14.793Z,1018.18
2018-05-04T10:12:14.457Z,1018.21
2018-05-04T10:13:14.474Z,1018.21
2018-05-04T10:14:14.495Z,1018.21
2018-05-04T10:15:14.557Z,1018.22
2018-05-04T10:16:14.524Z,1018.22
2018-05-04T10:17:14.541Z,1018.24
2018-05-04T10:18:15.691Z,1018.23
2018-05-04T10:19:15.196Z,1018.21
2018-05-04T10:20:15.074Z,1018.21
2018-05-04T10:21:14.640Z,1018.17
2018-05-04T10:22:14.639Z,1018.20
2018-05-04T10:23:14.642Z,1018.21
2018-05-04T10:24:14.662Z,1018.21
2018-05-04T10:25:14.676Z,1018.24
2018-05-04T10:26:14.706Z,1018.26
2018-05-04T10:27:14.709Z,1018.24
2018-05-04T10:28:14.726Z,1018.23
2018-05-04T10:29:14.743Z,1018.21
2018-05-04T10:30:14.769Z,1018.22
2018-05-04T10:31:14.783Z,1018.25
2018-05-04T10:32:14.834Z,1018.22
2018-05-04T10:33:14.814Z,1018.24
2018-05-04T10:34:14.846Z,1018.28
2018-05-04T10:35:14.883Z,1018.23
2018-05-04T10:36:14.864Z,1018.22
2018-05-04T10:37:14.895Z,1018.19
2018-05-04T10:38:14.966Z,1018.21
2018-05-04T10:39:14.922Z,1018.19
2018-05-04T10:40:14.938Z,1018.22
2018-05-04T10:41:15.037Z,1018.22
2018-05-04T10:42:14.968Z,1018.20
2018-05-04T10:43:14.988Z,1018.16
2018-05-04T10:44:15.008Z,1018.21
2018-05-04T10:45:15.261Z,1018.22
2018-05-04T10:47:15.053Z,1018.17
2018-05-04T10:48:15.071Z,1018.15
2018-05-04T10:49:15.086Z,1018.12
2018-05-04T10:50:15.105Z,1018.07
2018-05-04T10:51:15.126Z,1018.12
2018-05-04T10:52:15.301Z,1018.11
2018-05-04T10:53:15.160Z,1018.13
2018-05-04T10:54:15.171Z,1018.11
2018-05-04T10:55:15.191Z,1018.13
2018-05-04T10:56:15.368Z,1018.06
2018-05-04T10:57:15.245Z,1018.15
2018-05-04T10:58:15.254Z,1018.15
2018-05-04T10:59:15.262Z,1018.16
2018-05-04T11:00:15.278Z,1018.14
2018-05-04T11:01:15.349Z,1018.12
2018-05-04T11:02:15.312Z,1018.10
2018-05-04T11:03:15.326Z,1018.14
2018-05-04T11:04:15.353Z,1018.10
2018-05-04T11:05:15.363Z,1018.13
2018-05-04T11:06:15.379Z,1018.16
2018-05-04T11:07:15.396Z,1018.15
2018-05-04T11:08:15.417Z,1018.13
2018-05-04T11:09:15.434Z,1018.15
2018-05-04T11:10:15.615Z,1018.14
2018-05-04T11:11:15.549Z,1018.16
2018-05-04T11:13:15.546Z,1018.16
2018-05-04T11:14:15.517Z,1018.17
2018-05-04T11:15:15.535Z,1018.11
2018-05-04T11:16:15.556Z,1018.16
2018-05-04T11:17:15.570Z,1018.20
2018-05-04T11:18:15.588Z,1018.15
2018-05-04T11:19:15.603Z,1018.15
2018-05-04T11:20:15.623Z,1018.17
2018-05-04T11:21:15.638Z,1018.15
2018-05-04T11:22:15.655Z,1018.09
2018-05-04T11:23:15.675Z,1018.15
2018-05-04T11:24:15.798Z,1018.16
2018-05-04T11:25:15.710Z,1018.13
2018-05-04T11:26:15.728Z,1018.13
2018-05-04T11:27:15.799Z,1018.15
2018-05-04T11:28:15.761Z,1018.18
2018-05-04T11:29:15.780Z,1018.16
2018-05-04T11:30:15.798Z,1018.18
2018-05-04T11:31:16.440Z,1018.17
2018-05-04T11:32:15.833Z,1018.18
2018-05-04T11:33:16.267Z,1018.15
2018-05-04T11:34:15.865Z,1018.13
2018-05-04T11:35:15.882Z,1018.21
2018-05-04T11:36:15.902Z,1018.22
2018-05-04T11:37:15.919Z,1018.19
2018-05-04T11:38:15.935Z,1018.17
2018-05-04T11:39:15.964Z,1018.15
2018-05-04T11:40:15.974Z,1018.19
2018-05-04T11:41:15.990Z,1018.16
2018-05-04T11:42:16.009Z,1018.15
2018-05-04T11:43:16.027Z,1018.11
2018-05-04T11:44:17.418Z,1018.15
2018-05-04T11:45:17.634Z,1018.16
2018-05-04T11:46:16.865Z,1018.17
2018-05-04T11:47:16.893Z,1018.21
2018-05-04T11:48:16.305Z,1018.18
2018-05-04T11:49:16.398Z,1018.21
2018-05-04T11:50:17.478Z,1018.17
2018-05-04T11:51:16.170Z,1018.15
2018-05-04T11:52:16.188Z,1018.15
2018-05-04T11:53:16.207Z,1018.15
2018-05-04T11:54:16.218Z,1018.14
2018-05-04T11:55:16.255Z,1018.19
2018-05-04T11:56:16.251Z,1018.19
2018-05-04T11:57:16.269Z,1018.23
2018-05-04T11:58:16.289Z,1018.17
2018-05-04T11:59:16.320Z,1018.25
2018-05-04T12:00:16.324Z,1018.21
2018-05-04T12:01:16.361Z,1018.20
2018-05-04T12:02:16.360Z,1018.16
2018-05-04T12:03:16.376Z,1018.17
2018-05-04T12:04:16.396Z,1018.17
2018-05-04T12:05:16.413Z,1018.19
2018-05-04T12:06:16.432Z,1018.21
2018-05-04T12:07:16.449Z,1018.19
2018-05-04T12:08:16.475Z,1018.21
2018-05-04T12:09:16.488Z,1018.20
2018-05-04T12:10:16.514Z,1018.15
2018-05-04T12:11:16.522Z,1018.19
2018-05-04T12:12:16.541Z,1018.20
2018-05-04T12:13:16.562Z,1018.13
2018-05-04T12:14:16.580Z,1018.19
2018-05-04T12:15:16.594Z,1018.18
2018-05-04T12:16:16.615Z,1018.20
2018-05-04T12:17:16.631Z,1018.18
2018-05-04T12:18:16.654Z,1018.22
2018-05-04T12:19:16.698Z,1018.22
2018-05-04T12:20:16.711Z,1018.16
2018-05-04T12:21:16.718Z,1018.22
2018-05-04T12:22:16.735Z,1018.26
2018-05-04T12:23:16.737Z,1018.28
2018-05-04T12:24:16.758Z,1018.19
2018-05-04T12:25:16.775Z,1018.24